Time;durP1;ratioP1;P1;durP2;ratioP2;P2;SDS_P1;SDS_P2;PMS_P1;PMS_P2;Temp;Humidity;BMP_temperature;BMP_pressure;BME280_temperature;BME280_humidity;BME280_pressure;Samples;Min_cycle;Max_cycle;Signal;HPM_P1;HPM_P2
2022/12/03 00:01:45;;;;;;;43.83;32.70;;;-0.60;99.90;;;;;;5050753;28;20464;-51
2022/12/03 00:04:12;;;;;;;45.03;31.50;;;-0.60;99.90;;;;;;5056783;28;20460;-51
2022/12/03 00:06:40;;;;;;;48.87;34.23;;;-0.60;99.90;;;;;;5044318;28;20490;-53
2022/12/03 00:09:06;;;;;;;45.50;31.50;;;-0.70;99.90;;;;;;5045395;28;20465;-55
2022/12/03 00:11:33;;;;;;;46.73;32.07;;;-0.60;99.90;;;;;;5051188;28;21020;-54
2022/12/03 00:14:00;;;;;;;47.87;31.43;;;-0.70;99.90;;;;;;5044147;28;20459;-54
2022/12/03 00:16:27;;;;;;;44.90;32.17;;;-0.70;99.90;;;;;;5037440;28;20514;-54
2022/12/03 00:18:53;;;;;;;47.10;33.27;;;-0.60;99.90;;;;;;5047430;28;20465;-54
2022/12/03 00:21:20;;;;;;;50.07;32.07;;;-0.60;99.90;;;;;;5044234;28;20481;-54
2022/12/03 00:23:48;;;;;;;47.43;32.63;;;-0.60;99.90;;;;;;5041134;28;20548;-55
2022/12/03 00:26:14;;;;;;;47.90;32.43;;;-0.70;99.90;;;;;;5050893;28;21343;-54
2022/12/03 00:28:42;;;;;;;48.53;33.47;;;-0.70;99.90;;;;;;5035422;28;20445;-54
2022/12/03 00:31:08;;;;;;;49.30;34.43;;;-0.70;99.90;;;;;;5043901;28;20516;-54
2022/12/03 00:33:35;;;;;;;48.27;34.00;;;-0.70;99.90;;;;;;5047921;28;20502;-56
2022/12/03 00:36:01;;;;;;;53.80;33.27;;;-0.70;99.90;;;;;;5042546;28;20512;-54
2022/12/03 00:38:28;;;;;;;48.83;33.47;;;-0.70;99.90;;;;;;5047794;28;20458;-54
2022/12/03 00:40:56;;;;;;;47.50;32.03;;;-0.80;99.90;;;;;;5050519;28;20547;-54
2022/12/03 00:43:22;;;;;;;52.63;32.93;;;-0.70;99.90;;;;;;5047976;28;20544;-55
2022/12/03 00:45:49;;;;;;;51.80;34.60;;;-0.80;99.90;;;;;;5041673;28;20478;-54
2022/12/03 00:48:15;;;;;;;45.50;33.13;;;-0.70;99.90;;;;;;5041802;28;20744;-54
2022/12/03 00:50:42;;;;;;;49.43;32.87;;;-0.70;99.90;;;;;;5051126;28;20547;-54
2022/12/03 00:53:09;;;;;;;49.57;32.87;;;-0.80;99.90;;;;;;5045023;28;20469;-54
2022/12/03 00:55:35;;;;;;;43.73;32.13;;;-0.80;99.90;;;;;;5048751;28;20575;-54
2022/12/03 00:58:03;;;;;;;52.90;33.33;;;-0.80;99.90;;;;;;5045021;28;20515;-54
2022/12/03 01:00:30;;;;;;;45.70;34.40;;;-0.70;99.90;;;;;;5052242;28;20534;-55
2022/12/03 01:02:56;;;;;;;45.23;33.00;;;-0.80;99.90;;;;;;5050088;28;20515;-56
2022/12/03 01:05:23;;;;;;;50.60;33.90;;;-0.80;99.90;;;;;;5044167;28;20879;-54
2022/12/03 01:07:49;;;;;;;55.70;34.67;;;-0.80;99.90;;;;;;5051000;28;20454;-54
2022/12/03 01:10:16;;;;;;;48.63;32.00;;;-0.80;99.90;;;;;;5056285;28;20554;-54
2022/12/03 01:12:43;;;;;;;44.00;32.10;;;-0.70;99.90;;;;;;5050525;28;20881;-55
2022/12/03 01:15:11;;;;;;;42.57;30.50;;;-0.90;99.90;;;;;;5050882;28;20489;-54
2022/12/03 01:17:38;;;;;;;46.37;34.40;;;-0.80;99.90;;;;;;5047939;28;20489;-54
2022/12/03 01:20:08;;;;;;;50.40;33.60;;;-0.80;99.90;;;;;;5051795;28;20519;-55
2022/12/03 01:22:35;;;;;;;45.10;33.73;;;-0.70;99.90;;;;;;5048807;28;20449;-55
2022/12/03 01:25:02;;;;;;;44.07;31.00;;;-0.70;99.90;;;;;;5055948;28;20481;-55
2022/12/03 01:27:28;;;;;;;46.43;33.43;;;-0.70;99.90;;;;;;5052411;28;20519;-55
2022/12/03 01:29:55;;;;;;;51.27;34.57;;;-0.70;99.90;;;;;;5052752;28;20507;-54
2022/12/03 01:32:22;;;;;;;47.80;34.00;;;-0.60;99.90;;;;;;5045733;28;20515;-55
2022/12/03 01:34:50;;;;;;;45.80;33.30;;;-0.70;99.90;;;;;;5051413;28;20872;-54
2022/12/03 01:37:18;;;;;;;48.70;33.60;;;-0.70;99.90;;;;;;5042911;28;20505;-55
2022/12/03 01:39:45;;;;;;;51.03;36.53;;;-0.70;99.90;;;;;;5052760;28;20997;-55
2022/12/03 01:42:16;;;;;;;50.53;34.70;;;-0.70;99.90;;;;;;5053333;28;20470;-54
2022/12/03 01:44:44;;;;;;;57.97;37.37;;;-0.60;99.90;;;;;;5054627;28;20481;-55
2022/12/03 01:47:15;;;;;;;44.57;33.80;;;-0.60;99.90;;;;;;5041690;28;20451;-54
2022/12/03 01:49:46;;;;;;;51.67;34.90;;;-0.60;99.90;;;;;;5042849;28;20940;-54
2022/12/03 01:52:15;;;;;;;56.53;36.97;;;-0.60;99.90;;;;;;5043892;28;20548;-55
2022/12/03 01:54:45;;;;;;;51.27;35.97;;;-0.60;99.90;;;;;;5046865;28;20795;-54
2022/12/03 01:57:19;;;;;;;47.27;34.50;;;-0.60;99.90;;;;;;5056354;28;20893;-53
2022/12/03 01:59:47;;;;;;;49.37;35.47;;;-0.70;99.90;;;;;;5051954;28;20460;-55
2022/12/03 02:02:18;;;;;;;56.00;34.23;;;-0.70;99.90;;;;;;5054782;28;20453;-54
2022/12/03 02:04:46;;;;;;;59.40;35.93;;;-0.60;99.90;;;;;;5050821;28;20490;-54
2022/12/03 02:07:18;;;;;;;45.77;34.30;;;-0.70;99.90;;;;;;5046177;28;20947;-54
2022/12/03 02:09:45;;;;;;;52.47;34.80;;;-0.60;99.90;;;;;;5037859;28;20548;-54
2022/12/03 02:12:12;;;;;;;48.93;36.03;;;-0.70;99.90;;;;;;5038171;28;20462;-55
2022/12/03 02:14:39;;;;;;;50.10;34.33;;;-0.70;99.90;;;;;;5045241;28;21023;-54
2022/12/03 02:17:05;;;;;;;53.73;34.50;;;-0.70;99.90;;;;;;5044449;28;21075;-53
2022/12/03 02:19:32;;;;;;;49.33;34.10;;;-0.80;99.90;;;;;;5043251;28;20465;-53
2022/12/03 02:22:05;;;;;;;46.53;33.77;;;-0.80;99.90;;;;;;5044770;28;20462;-56
2022/12/03 02:24:41;;;;;;;46.47;32.20;;;-0.70;99.90;;;;;;5041849;28;20458;-55
2022/12/03 02:27:09;;;;;;;55.50;35.20;;;-0.70;99.90;;;;;;5041547;28;20507;-54
2022/12/03 02:29:36;;;;;;;49.90;34.53;;;-0.60;99.90;;;;;;5047460;28;20539;-53
2022/12/03 02:32:03;;;;;;;50.07;35.83;;;-0.70;99.90;;;;;;5040134;28;20545;-53
2022/12/03 02:34:35;;;;;;;58.20;33.30;;;-0.70;99.90;;;;;;5038352;28;20523;-54
2022/12/03 02:37:03;;;;;;;50.80;32.50;;;-0.70;99.90;;;;;;5047286;28;20527;-55
2022/12/03 02:39:30;;;;;;;48.13;33.17;;;-0.70;99.90;;;;;;5038043;28;20462;-56
2022/12/03 02:44:42;;;;;;;53.23;36.77;;;-0.70;99.90;;;;;;5049030;28;20519;-55
2022/12/03 02:47:09;;;;;;;49.90;32.53;;;-0.70;99.90;;;;;;5053585;28;20461;-55
2022/12/03 02:49:36;;;;;;;48.73;33.97;;;-0.70;99.90;;;;;;5040213;28;20840;-54
2022/12/03 02:52:03;;;;;;;59.47;34.63;;;-0.70;99.90;;;;;;5048142;28;20462;-54
2022/12/03 02:54:29;;;;;;;50.77;34.27;;;-0.70;99.90;;;;;;5043031;28;20462;-54
2022/12/03 02:59:29;;;;;;;45.63;33.47;;;-0.80;99.90;;;;;;5040393;28;20459;-54
2022/12/03 03:01:57;;;;;;;53.83;35.37;;;-0.70;99.90;;;;;;5037066;28;20864;-56
2022/12/03 03:04:24;;;;;;;47.63;34.23;;;-0.80;99.90;;;;;;5046258;28;20459;-54
2022/12/03 03:06:51;;;;;;;48.00;33.10;;;-0.70;99.90;;;;;;5039350;28;20889;-54
2022/12/03 03:09:19;;;;;;;52.90;34.50;;;-0.80;99.90;;;;;;5046581;28;20457;-54
2022/12/03 03:11:45;;;;;;;56.63;34.23;;;-0.80;99.90;;;;;;5036586;28;20485;-54
2022/12/03 03:14:12;;;;;;;50.03;31.20;;;-0.70;99.90;;;;;;5048093;28;20527;-55
2022/12/03 03:16:39;;;;;;;50.07;34.20;;;-0.70;99.90;;;;;;5043973;28;20543;-54
2022/12/03 03:19:07;;;;;;;50.23;35.37;;;-0.70;99.90;;;;;;5053385;28;20907;-54
2022/12/03 03:21:33;;;;;;;51.00;33.70;;;-0.70;99.90;;;;;;5043515;28;20467;-54
2022/12/03 03:24:00;;;;;;;46.40;33.87;;;-0.70;99.90;;;;;;5045074;28;20458;-54
2022/12/03 03:26:27;;;;;;;44.37;32.50;;;-0.70;99.90;;;;;;5040642;28;20474;-54
2022/12/03 03:28:53;;;;;;;50.70;35.10;;;-0.70;99.90;;;;;;5047068;28;20457;-55
2022/12/03 03:31:22;;;;;;;57.23;36.93;;;-0.80;99.90;;;;;;5039807;28;20470;-54
2022/12/03 03:33:50;;;;;;;52.60;34.73;;;-0.70;99.90;;;;;;5048968;28;20955;-53
2022/12/03 03:36:19;;;;;;;51.63;34.00;;;-0.70;99.90;;;;;;5037851;28;20478;-53
2022/12/03 03:38:46;;;;;;;45.33;31.87;;;-0.70;99.90;;;;;;5052975;28;20758;-54
2022/12/03 03:41:14;;;;;;;49.63;33.33;;;-0.70;99.90;;;;;;5041830;28;20497;-54
2022/12/03 03:43:43;;;;;;;52.20;34.57;;;-0.80;99.90;;;;;;5044850;28;20455;-54
2022/12/03 03:46:10;;;;;;;45.63;31.53;;;-0.80;99.90;;;;;;5032122;28;20479;-55
2022/12/03 03:48:37;;;;;;;56.07;35.80;;;-0.70;99.90;;;;;;5050048;28;20469;-53
2022/12/03 03:51:08;;;;;;;54.57;36.00;;;-0.70;99.90;;;;;;5040959;28;20458;-54
2022/12/03 03:53:37;;;;;;;56.30;36.53;;;-0.70;99.90;;;;;;5043225;28;20442;-53
2022/12/03 03:56:04;;;;;;;56.97;35.90;;;-0.70;99.90;;;;;;5045282;28;20482;-54
2022/12/03 03:58:31;;;;;;;50.93;34.80;;;-0.80;99.90;;;;;;5042580;28;20438;-54
2022/12/03 04:00:57;;;;;;;49.27;33.77;;;-0.70;99.90;;;;;;5049422;28;20496;-54
2022/12/03 04:03:24;;;;;;;53.80;35.57;;;-0.80;99.90;;;;;;5039401;28;20442;-56
2022/12/03 04:05:51;;;;;;;50.97;36.10;;;-0.80;99.90;;;;;;5044220;28;20566;-54
2022/12/03 04:08:17;;;;;;;55.03;35.87;;;-0.70;99.90;;;;;;5043365;28;20523;-53
2022/12/03 04:13:29;;;;;;;50.83;33.97;;;-0.70;99.90;;;;;;5047838;28;20456;-55
2022/12/03 04:15:56;;;;;;;49.97;34.10;;;-0.80;99.90;;;;;;5045844;28;21014;-56
2022/12/03 04:23:50;;;;;;;48.30;34.00;;;-0.80;99.90;;;;;;5047464;28;20476;-56
2022/12/03 04:29:03;;;;;;;54.63;36.70;;;-0.80;99.90;;;;;;5056172;28;20472;-54
2022/12/03 04:36:58;;;;;;;58.23;35.87;;;-0.80;99.90;;;;;;5044306;28;20485;-55
2022/12/03 04:39:25;;;;;;;52.17;36.20;;;-0.80;99.90;;;;;;5049228;28;20539;-54
2022/12/03 04:41:53;;;;;;;53.10;36.93;;;-0.70;99.90;;;;;;5051112;28;20517;-54
2022/12/03 04:44:38;;;;;;;50.67;34.83;;;-0.70;99.90;;;;;;5046112;28;20543;-54
2022/12/03 04:47:08;;;;;;;53.73;36.20;;;-0.90;99.90;;;;;;5047140;28;20465;-55
2022/12/03 04:49:35;;;;;;;58.10;36.20;;;-0.80;99.90;;;;;;5032813;28;20463;-54
2022/12/03 04:52:02;;;;;;;50.23;34.93;;;-0.80;99.90;;;;;;5050523;28;20453;-55
2022/12/03 04:54:29;;;;;;;53.90;37.07;;;-0.90;99.90;;;;;;5048191;28;20463;-55
2022/12/03 04:56:57;;;;;;;51.77;35.53;;;-0.90;99.90;;;;;;5041215;28;20491;-55
2022/12/03 04:59:23;;;;;;;50.33;35.93;;;-0.80;99.90;;;;;;5040866;28;20523;-55
2022/12/03 05:01:50;;;;;;;52.70;33.97;;;-0.90;99.90;;;;;;5043818;28;20462;-55
2022/12/03 05:04:17;;;;;;;59.90;34.97;;;-0.90;99.90;;;;;;5042190;28;20451;-55
2022/12/03 05:06:43;;;;;;;55.90;36.20;;;-0.80;99.90;;;;;;5051247;28;20455;-54
2022/12/03 05:09:10;;;;;;;50.47;33.67;;;-0.90;99.90;;;;;;5045087;28;20807;-54
2022/12/03 05:11:37;;;;;;;51.60;34.70;;;-0.80;99.90;;;;;;5048529;28;20871;-54
2022/12/03 05:14:05;;;;;;;53.10;36.20;;;-0.80;99.90;;;;;;5047533;28;20457;-54
2022/12/03 05:16:32;;;;;;;58.80;34.30;;;-0.80;99.90;;;;;;5037568;28;20487;-55
2022/12/03 05:18:58;;;;;;;57.70;36.90;;;-0.80;99.90;;;;;;5042768;28;20487;-55
2022/12/03 05:21:24;;;;;;;52.17;35.90;;;-0.80;99.90;;;;;;5041179;28;20509;-55
2022/12/03 05:23:51;;;;;;;58.43;36.80;;;-0.80;99.90;;;;;;5041336;28;20444;-54
2022/12/03 05:26:17;;;;;;;46.57;33.77;;;-0.80;99.90;;;;;;5046877;28;20223;-54
2022/12/03 05:28:44;;;;;;;54.57;35.20;;;-0.70;99.90;;;;;;5047748;28;20511;-55
2022/12/03 05:31:12;;;;;;;56.13;36.23;;;-0.70;99.90;;;;;;5047800;28;20462;-55
2022/12/03 05:33:39;;;;;;;64.20;37.20;;;-0.70;99.90;;;;;;5040351;28;20458;-55
2022/12/03 05:36:06;;;;;;;53.83;35.60;;;-0.70;99.90;;;;;;5043293;28;20477;-54
2022/12/03 05:38:33;;;;;;;52.90;35.27;;;-0.80;99.90;;;;;;5050452;28;20971;-52
2022/12/03 05:40:59;;;;;;;56.53;37.20;;;-0.80;99.90;;;;;;5050525;28;20438;-51
2022/12/03 05:43:25;;;;;;;55.07;35.83;;;-0.80;99.90;;;;;;5047791;28;20516;-51
2022/12/03 05:45:51;;;;;;;56.57;35.57;;;-0.80;99.90;;;;;;5046906;28;20818;-51
2022/12/03 05:48:19;;;;;;;66.23;35.97;;;-0.80;99.90;;;;;;5043944;28;20200;-51
2022/12/03 05:50:46;;;;;;;55.50;32.80;;;-0.80;99.90;;;;;;5048405;28;20458;-51
2022/12/03 05:53:14;;;;;;;56.67;35.73;;;-0.80;99.90;;;;;;5050243;28;20442;-50
2022/12/03 05:55:41;;;;;;;58.07;34.90;;;-0.80;99.90;;;;;;5051802;28;20872;-50
2022/12/03 05:58:07;;;;;;;51.60;35.03;;;-0.80;99.90;;;;;;5037193;28;20483;-51
2022/12/03 06:00:36;;;;;;;55.23;35.90;;;-0.80;99.90;;;;;;5040377;28;20497;-51
2022/12/03 06:03:04;;;;;;;48.10;32.43;;;-0.80;99.90;;;;;;5046487;28;20975;-52
2022/12/03 06:05:32;;;;;;;49.50;33.23;;;-0.80;99.90;;;;;;5048622;28;20491;-52
2022/12/03 06:07:59;;;;;;;56.83;35.40;;;-0.80;99.90;;;;;;5050902;28;20488;-51
2022/12/03 06:10:27;;;;;;;61.60;35.50;;;-0.80;99.90;;;;;;5043729;28;20438;-52
2022/12/03 06:12:53;;;;;;;59.87;35.80;;;-0.90;99.90;;;;;;5050740;28;20527;-52
2022/12/03 06:15:20;;;;;;;51.97;34.30;;;-0.80;99.90;;;;;;5047400;28;21052;-51
2022/12/03 06:17:47;;;;;;;52.73;36.37;;;-0.80;99.90;;;;;;5045994;28;20539;-51
2022/12/03 06:20:15;;;;;;;53.67;33.50;;;-0.80;99.90;;;;;;5040646;28;20808;-52
2022/12/03 06:22:43;;;;;;;56.00;34.97;;;-0.90;99.90;;;;;;5039856;28;21016;-52
2022/12/03 06:25:10;;;;;;;48.27;33.30;;;-0.80;99.90;;;;;;5039470;28;20478;-51
2022/12/03 06:27:37;;;;;;;57.43;33.73;;;-0.80;99.90;;;;;;5049801;28;20450;-52
2022/12/03 06:30:05;;;;;;;61.13;34.87;;;-0.90;99.90;;;;;;5038007;28;20521;-51
2022/12/03 06:32:32;;;;;;;50.70;34.90;;;-0.80;99.90;;;;;;5049746;28;20520;-51
2022/12/03 06:34:58;;;;;;;55.77;34.70;;;-0.80;99.90;;;;;;5050281;28;20457;-52
2022/12/03 06:37:25;;;;;;;56.03;35.07;;;-0.80;99.90;;;;;;5045712;28;20567;-53
2022/12/03 06:39:53;;;;;;;56.30;35.47;;;-0.80;99.90;;;;;;5037822;28;20518;-51
2022/12/03 06:42:19;;;;;;;55.60;35.63;;;-0.80;99.90;;;;;;5035806;28;20462;-51
2022/12/03 06:44:46;;;;;;;55.93;36.00;;;-0.80;99.90;;;;;;5039897;28;20459;-52
2022/12/03 06:47:13;;;;;;;60.77;34.73;;;-0.80;99.90;;;;;;5030993;28;20850;-52
2022/12/03 06:49:39;;;;;;;54.10;36.43;;;-0.90;99.90;;;;;;5031459;28;20447;-52
2022/12/03 06:52:06;;;;;;;61.37;37.93;;;-0.90;99.90;;;;;;5040563;28;20458;-52
2022/12/03 06:54:32;;;;;;;69.33;36.20;;;-0.80;99.90;;;;;;5041856;28;20438;-52
2022/12/03 06:57:00;;;;;;;55.13;36.10;;;-0.90;99.90;;;;;;5048464;28;20477;-52
2022/12/03 06:59:27;;;;;;;58.07;38.30;;;-0.80;99.90;;;;;;5039020;28;20471;-52
2022/12/03 07:01:53;;;;;;;58.77;35.37;;;-0.80;99.90;;;;;;5042346;28;20761;-52
2022/12/03 07:04:20;;;;;;;55.87;36.20;;;-0.80;99.90;;;;;;5040588;28;20462;-52
2022/12/03 07:06:47;;;;;;;53.80;35.33;;;-0.80;99.90;;;;;;5049333;28;20511;-52
2022/12/03 07:09:15;;;;;;;57.50;36.83;;;-0.80;99.90;;;;;;5050061;28;20939;-52
2022/12/03 07:11:42;;;;;;;68.20;38.33;;;-0.80;99.90;;;;;;5039420;28;20484;-51
2022/12/03 07:14:10;;;;;;;58.73;37.00;;;-0.90;99.90;;;;;;5041915;28;20533;-51
2022/12/03 07:16:37;;;;;;;75.87;36.43;;;-0.90;99.90;;;;;;5042894;28;20505;-51
2022/12/03 07:19:05;;;;;;;59.30;36.57;;;-0.90;99.90;;;;;;5034562;28;20458;-51
2022/12/03 07:21:32;;;;;;;53.83;36.87;;;-0.90;99.90;;;;;;5039179;28;20523;-51
2022/12/03 07:23:59;;;;;;;60.70;37.77;;;-0.80;99.90;;;;;;5041559;28;20504;-51
2022/12/03 07:26:25;;;;;;;62.00;35.57;;;-0.80;99.90;;;;;;5039917;28;20534;-51
2022/12/03 07:28:52;;;;;;;63.47;37.83;;;-0.80;99.90;;;;;;5043265;28;20870;-51
2022/12/03 07:31:20;;;;;;;57.30;36.50;;;-0.80;99.90;;;;;;5036887;28;20591;-52
2022/12/03 07:33:46;;;;;;;65.73;39.40;;;-0.70;99.90;;;;;;5036061;28;20459;-51
2022/12/03 07:36:13;;;;;;;57.07;35.43;;;-0.80;99.90;;;;;;5039171;28;20826;-51
2022/12/03 07:38:40;;;;;;;56.70;34.87;;;-0.80;99.90;;;;;;5037076;28;20522;-52
2022/12/03 07:41:06;;;;;;;60.80;37.80;;;-0.90;99.90;;;;;;5030784;28;20863;-53
2022/12/03 07:43:33;;;;;;;58.93;35.80;;;-0.80;99.90;;;;;;5043709;28;20462;-52
2022/12/03 07:46:00;;;;;;;61.03;35.77;;;-0.80;99.90;;;;;;5051333;28;20489;-51
2022/12/03 07:48:27;;;;;;;66.40;35.87;;;-0.80;99.90;;;;;;5062886;28;20515;-51
2022/12/03 07:50:54;;;;;;;60.37;35.07;;;-0.80;99.90;;;;;;5048937;28;20461;-51
2022/12/03 07:53:21;;;;;;;50.27;33.73;;;-0.80;99.90;;;;;;5040007;28;20466;-52
2022/12/03 07:55:47;;;;;;;60.30;36.67;;;-0.80;99.90;;;;;;5052024;28;20627;-52
2022/12/03 07:58:15;;;;;;;53.10;34.17;;;-0.90;99.90;;;;;;5052979;28;20516;-51
2022/12/03 08:00:41;;;;;;;56.90;33.80;;;-0.90;99.90;;;;;;5045302;28;20955;-51
2022/12/03 08:03:08;;;;;;;58.63;34.80;;;-1.00;99.90;;;;;;5038231;28;20449;-51
2022/12/03 08:05:36;;;;;;;53.73;33.80;;;-0.90;99.90;;;;;;5050472;28;20527;-50
2022/12/03 08:08:02;;;;;;;52.93;34.87;;;-0.90;97.80;;;;;;5047488;28;20872;-51
2022/12/03 08:10:29;;;;;;;54.93;34.93;;;-0.80;99.60;;;;;;5034900;28;20509;-51
2022/12/03 08:12:58;;;;;;;50.37;33.93;;;-0.90;96.70;;;;;;5035035;28;20508;-52
2022/12/03 08:15:27;;;;;;;58.57;35.90;;;-0.80;97.60;;;;;;5039161;28;20526;-52
2022/12/03 08:17:57;;;;;;;55.63;34.50;;;-0.80;96.40;;;;;;5040993;28;20513;-52
2022/12/03 08:20:26;;;;;;;54.60;33.47;;;-0.80;99.60;;;;;;5040098;28;20462;-52
2022/12/03 08:22:55;;;;;;;57.97;35.47;;;-0.70;97.50;;;;;;5038986;28;20474;-51
2022/12/03 08:25:23;;;;;;;56.47;34.17;;;-0.70;96.70;;;;;;5047191;28;20863;-51
2022/12/03 08:27:51;;;;;;;52.20;35.23;;;-0.80;99.50;;;;;;5039891;28;20947;-51
2022/12/03 08:30:18;;;;;;;52.60;33.77;;;-0.70;98.30;;;;;;5043422;28;20466;-51
2022/12/03 08:32:45;;;;;;;54.83;35.73;;;-0.80;98.60;;;;;;5045169;28;20446;-51
2022/12/03 08:35:14;;;;;;;55.13;35.57;;;-0.80;96.60;;;;;;5043790;28;20890;-51
2022/12/03 08:37:41;;;;;;;57.90;36.60;;;-0.80;93.00;;;;;;5045221;28;20490;-51
2022/12/03 08:40:23;;;;;;;56.50;36.33;;;-0.80;90.80;;;;;;5052977;28;20457;-52
2022/12/03 08:42:50;;;;;;;59.97;36.30;;;-0.80;88.80;;;;;;5036096;28;20464;-52
2022/12/03 08:45:38;;;;;;;53.43;35.30;;;-0.70;92.60;;;;;;5047908;28;20524;-51
2022/12/03 08:48:26;;;;;;;53.00;34.30;;;-0.80;93.60;;;;;;5032520;28;20584;-50
2022/12/03 08:50:55;;;;;;;52.20;36.37;;;-0.80;88.70;;;;;;5038677;28;20535;-50
2022/12/03 08:53:31;;;;;;;56.50;33.37;;;-0.70;91.40;;;;;;5039046;28;20465;-51
2022/12/03 08:56:01;;;;;;;57.63;35.90;;;-0.70;93.10;;;;;;5040093;28;20865;-51
2022/12/03 08:58:37;;;;;;;53.17;33.83;;;-1.00;99.90;;;;;;5036537;28;20520;-51
2022/12/03 09:01:29;;;;;;;52.00;33.73;;;-0.70;87.20;;;;;;5040158;28;20485;-52
2022/12/03 09:04:02;;;;;;;51.20;34.87;;;-0.60;87.20;;;;;;5041432;28;20465;-51
2022/12/03 09:06:28;;;;;;;49.20;34.07;;;-0.70;91.80;;;;;;5048351;28;20552;-52
2022/12/03 09:08:55;;;;;;;49.07;34.27;;;-0.60;91.80;;;;;;5046678;28;20453;-50
2022/12/03 09:11:23;;;;;;;51.20;34.40;;;-0.60;96.00;;;;;;5031174;28;20459;-51
2022/12/03 09:13:50;;;;;;;53.17;34.67;;;-0.60;99.90;;;;;;5031461;28;20520;-52
2022/12/03 09:16:18;;;;;;;53.50;36.10;;;-0.60;98.80;;;;;;5040822;28;20482;-55
2022/12/03 09:18:45;;;;;;;56.37;35.03;;;-0.60;93.40;;;;;;5044918;28;21271;-51
2022/12/03 09:21:12;;;;;;;55.33;34.10;;;-0.60;93.40;;;;;;5037934;28;20490;-51
2022/12/03 09:23:39;;;;;;;53.10;35.27;;;-0.60;94.70;;;;;;5041308;28;20573;-53
2022/12/03 09:26:06;;;;;;;60.43;34.90;;;-0.70;96.20;;;;;;5040142;28;20536;-52
2022/12/03 09:28:34;;;;;;;53.73;33.40;;;-0.60;95.40;;;;;;5047071;28;20458;-51
2022/12/03 09:31:00;;;;;;;53.20;36.93;;;-0.70;94.10;;;;;;5050223;28;20458;-51
2022/12/03 09:33:28;;;;;;;69.03;41.33;;;-0.70;93.40;;;;;;5044071;28;20516;-51
2022/12/03 09:35:55;;;;;;;57.30;34.40;;;-0.70;90.60;;;;;;5049264;28;20482;-51
2022/12/03 09:38:21;;;;;;;55.17;34.50;;;-0.80;88.40;;;;;;5042320;28;20533;-50
2022/12/03 09:40:48;;;;;;;52.00;33.47;;;-0.80;86.10;;;;;;5050594;28;20477;-52
2022/12/03 09:43:15;;;;;;;52.07;34.50;;;-0.80;81.10;;;;;;5039597;28;20983;-52
2022/12/03 09:45:44;;;;;;;52.27;33.33;;;-0.80;77.70;;;;;;5038970;28;20474;-52
2022/12/03 09:48:13;;;;;;;48.27;33.20;;;-0.80;74.80;;;;;;5037276;28;21039;-52
2022/12/03 09:50:41;;;;;;;44.80;32.60;;;-0.70;73.60;;;;;;5043735;28;20463;-51
2022/12/03 09:53:13;;;;;;;52.90;33.97;;;-0.70;71.80;;;;;;5038266;28;21210;-51
2022/12/03 09:55:40;;;;;;;58.20;36.13;;;-0.70;69.50;;;;;;5036311;28;20544;-51
2022/12/03 09:58:11;;;;;;;53.30;34.70;;;-0.80;69.70;;;;;;5046382;28;20477;-51
2022/12/03 10:00:38;;;;;;;55.67;35.37;;;-0.70;68.00;;;;;;5034899;28;20546;-51
2022/12/03 10:03:07;;;;;;;57.93;37.37;;;-0.70;68.50;;;;;;5038913;28;20967;-51
2022/12/03 10:05:34;;;;;;;53.93;36.30;;;-0.70;63.50;;;;;;5035784;28;20490;-51
2022/12/03 10:08:06;;;;;;;51.70;37.47;;;-0.70;60.80;;;;;;5036755;28;20454;-51
2022/12/03 10:10:34;;;;;;;50.47;34.70;;;-0.60;56.60;;;;;;5038698;28;20520;-51
2022/12/03 10:13:01;;;;;;;52.80;34.73;;;-0.50;55.40;;;;;;5046571;28;20466;-51
2022/12/03 10:15:28;;;;;;;53.13;32.87;;;-0.50;59.50;;;;;;5038761;28;20527;-51
2022/12/03 10:18:06;;;;;;;46.73;33.57;;;-0.50;65.10;;;;;;5043842;28;20547;-50
2022/12/03 10:20:34;;;;;;;49.13;35.93;;;-0.50;62.90;;;;;;5047810;28;20503;-52
2022/12/03 10:23:01;;;;;;;47.50;33.40;;;-0.50;67.70;;;;;;5050243;28;20480;-52
2022/12/03 10:25:27;;;;;;;52.10;34.50;;;-0.40;68.70;;;;;;5043373;28;20486;-52
2022/12/03 10:28:00;;;;;;;59.60;34.30;;;-0.40;69.30;;;;;;5047124;28;20520;-51
2022/12/03 10:30:27;;;;;;;55.10;34.83;;;-0.30;65.90;;;;;;5045700;28;20967;-51
2022/12/03 10:32:55;;;;;;;46.87;33.03;;;-0.30;68.70;;;;;;5048240;28;20469;-51
2022/12/03 10:35:24;;;;;;;58.47;33.93;;;-0.30;67.30;;;;;;5034509;28;20470;-51
2022/12/03 10:38:01;;;;;;;49.13;32.13;;;-0.20;67.40;;;;;;5045208;28;20543;-52
2022/12/03 10:40:29;;;;;;;56.87;35.03;;;-0.20;64.80;;;;;;5040143;28;20489;-51
2022/12/03 10:43:15;;;;;;;50.83;33.30;;;-0.20;68.50;;;;;;5047694;28;21006;-51
2022/12/03 10:45:42;;;;;;;55.07;33.87;;;-0.30;73.20;;;;;;5037731;28;20477;-50
2022/12/03 10:48:14;;;;;;;55.97;34.60;;;-0.20;70.30;;;;;;5040147;28;20963;-51
2022/12/03 10:50:51;;;;;;;50.10;33.57;;;-0.20;73.70;;;;;;5039233;28;20801;-52
2022/12/03 10:53:21;;;;;;;53.37;34.97;;;-0.20;73.70;;;;;;5032623;28;20463;-52
2022/12/03 10:55:50;;;;;;;52.17;32.57;;;-0.20;75.50;;;;;;5046606;28;20503;-51
2022/12/03 10:58:22;;;;;;;49.00;33.90;;;-0.20;78.80;;;;;;5035055;28;20490;-50
2022/12/03 11:00:50;;;;;;;50.30;32.50;;;-0.20;77.60;;;;;;5038935;28;20465;-50
2022/12/03 11:03:18;;;;;;;53.20;34.90;;;-0.10;78.90;;;;;;5047073;28;20465;-50
2022/12/03 11:05:45;;;;;;;76.73;46.40;;;-0.10;77.10;;;;;;5047574;28;20490;-52
2022/12/03 11:08:16;;;;;;;74.67;45.57;;;-0.10;82.90;;;;;;5045985;28;20462;-51
2022/12/03 11:10:44;;;;;;;61.57;39.03;;;-0.10;80.10;;;;;;5038056;28;20512;-51
2022/12/03 11:13:44;;;;;;;57.87;39.07;;;0.00;78.30;;;;;;5043116;28;20462;-52
2022/12/03 11:16:10;;;;;;;67.43;46.33;;;0.00;80.60;;;;;;5041931;28;20479;-51
2022/12/03 11:19:01;;;;;;;51.63;35.40;;;0.00;79.40;;;;;;5046649;28;20513;-51
2022/12/03 11:21:28;;;;;;;54.67;31.37;;;0.00;79.30;;;;;;5047081;28;20457;-51
2022/12/03 11:24:20;;;;;;;49.10;31.53;;;0.00;82.20;;;;;;5052192;28;20462;-52
2022/12/03 11:27:16;;;;;;;49.30;32.50;;;0.00;85.00;;;;;;5038498;28;20470;-51
2022/12/03 11:29:57;;;;;;;41.20;31.57;;;-0.10;86.70;;;;;;5041780;28;20465;-50
2022/12/03 11:33:05;;;;;;;45.20;31.60;;;-0.20;86.30;;;;;;5041175;28;20980;-50
2022/12/03 11:36:07;;;;;;;45.70;30.43;;;-0.10;82.30;;;;;;5049695;28;20994;-51
2022/12/03 11:38:55;;;;;;;47.27;30.00;;;0.00;80.60;;;;;;5018053;28;20495;-50
2022/12/03 11:41:27;;;;;;;49.60;30.07;;;-0.10;96.40;;;;;;5052294;28;20511;-51
2022/12/03 11:44:27;;;;;;;46.80;29.63;;;-0.10;89.90;;;;;;5045808;28;20498;-52
2022/12/03 11:46:55;;;;;;;43.33;30.10;;;-0.10;82.60;;;;;;5035696;28;20512;-52
2022/12/03 11:49:37;;;;;;;45.23;30.30;;;-0.10;82.80;;;;;;5043579;28;20529;-50
2022/12/03 11:52:23;;;;;;;47.90;28.97;;;-0.20;82.00;;;;;;5048608;28;20939;-52
2022/12/03 11:54:54;;;;;;;47.60;30.93;;;-0.20;77.60;;;;;;5038693;28;20923;-51
2022/12/03 11:57:28;;;;;;;49.10;29.83;;;-0.20;82.40;;;;;;5040752;28;20461;-50
2022/12/03 12:00:03;;;;;;;46.67;29.63;;;-0.20;80.30;;;;;;5038919;28;20517;-51
2022/12/03 12:02:29;;;;;;;48.80;29.90;;;-0.10;81.10;;;;;;5040421;28;20551;-50
2022/12/03 12:04:56;;;;;;;45.87;30.70;;;-0.10;84.50;;;;;;5044262;28;20561;-50
2022/12/03 12:07:36;;;;;;;47.50;30.57;;;-0.10;83.30;;;;;;5038992;28;20515;-51
2022/12/03 12:10:04;;;;;;;43.10;28.40;;;-0.10;82.00;;;;;;5040374;28;20455;-51
2022/12/03 12:12:36;;;;;;;50.93;30.43;;;0.00;79.20;;;;;;5040814;28;20521;-51
2022/12/03 12:15:41;;;;;;;46.10;29.50;;;0.00;81.80;;;;;;5045976;28;20481;-50
2022/12/03 12:18:36;;;;;;;53.67;31.63;;;0.00;83.20;;;;;;5035967;28;20505;-50
2022/12/03 12:21:41;;;;;;;49.53;30.10;;;-0.10;90.50;;;;;;5050055;28;20504;-50
2022/12/03 12:24:30;;;;;;;48.73;30.67;;;-0.10;88.20;;;;;;5040689;28;20825;-50
2022/12/03 12:26:59;;;;;;;54.43;32.50;;;-0.10;86.10;;;;;;5058823;28;20461;-51
2022/12/03 12:29:25;;;;;;;48.57;31.10;;;-0.30;90.90;;;;;;5049001;28;20533;-51
2022/12/03 12:31:59;;;;;;;52.57;31.30;;;-0.40;88.00;;;;;;5037110;28;21013;-51
2022/12/03 12:34:26;;;;;;;48.07;30.13;;;-0.30;80.80;;;;;;5037417;28;20543;-52
2022/12/03 12:36:55;;;;;;;50.57;31.00;;;-0.20;80.30;;;;;;5041341;28;20453;-50
2022/12/03 12:39:22;;;;;;;50.13;29.97;;;-0.20;77.80;;;;;;5046161;28;20488;-51
2022/12/03 12:41:50;;;;;;;59.90;31.90;;;-0.40;85.70;;;;;;5042152;28;20845;-50
2022/12/03 12:44:17;;;;;;;50.27;30.60;;;-0.30;77.50;;;;;;5050379;28;20603;-51
2022/12/03 12:46:46;;;;;;;48.90;30.20;;;-0.20;74.10;;;;;;5041080;28;25178;-52
2022/12/03 12:49:15;;;;;;;51.50;31.57;;;-0.30;79.60;;;;;;5038145;28;20492;-50
2022/12/03 12:51:44;;;;;;;56.97;30.87;;;-0.20;77.90;;;;;;5036934;28;20454;-51
2022/12/03 12:54:13;;;;;;;48.13;30.30;;;-0.30;76.60;;;;;;5040387;28;20947;-51
2022/12/03 12:56:42;;;;;;;53.37;31.57;;;-0.30;77.10;;;;;;5044099;28;20478;-50
2022/12/03 12:59:11;;;;;;;56.30;32.40;;;-0.30;80.40;;;;;;5035972;28;20991;-50
2022/12/03 13:01:38;;;;;;;45.70;30.37;;;-0.30;73.30;;;;;;5037581;28;20462;-50